sensor_id;sensor_type;location;lat;lon;timestamp;pressure;altitude;pressure_sealevel;temperature;humidity
18784;BME280;9520;50.954;6.968;2024-01-27T00:00:12;102860.06;;;12.39;44.39
18784;BME280;9520;50.954;6.968;2024-01-27T00:00:35;102860.13;;;12.43;44.43
18784;BME280;9520;50.954;6.968;2024-01-27T00:00:58;102862.84;;;12.49;44.53
18784;BME280;9520;50.954;6.968;2024-01-27T00:01:19;102862.91;;;12.52;44.30
18784;BME280;9520;50.954;6.968;2024-01-27T00:01:41;102862.06;;;12.57;44.41
18784;BME280;9520;50.954;6.968;2024-01-27T00:02:03;102855.91;;;12.59;44.76
18784;BME280;9520;50.954;6.968;2024-01-27T00:02:25;102863.91;;;12.62;44.75
18784;BME280;9520;50.954;6.968;2024-01-27T00:02:47;102865.66;;;12.63;44.32
18784;BME280;9520;50.954;6.968;2024-01-27T00:03:09;102863.91;;;12.62;44.39
18784;BME280;9520;50.954;6.968;2024-01-27T00:03:31;102868.28;;;12.63;44.22
18784;BME280;9520;50.954;6.968;2024-01-27T00:03:53;102871.03;;;12.68;44.22
18784;BME280;9520;50.954;6.968;2024-01-27T00:04:15;102860.44;;;12.69;44.23
18784;BME280;9520;50.954;6.968;2024-01-27T00:04:37;102864.88;;;12.73;43.98
18784;BME280;9520;50.954;6.968;2024-01-27T00:04:59;102863.16;;;12.75;43.83
18784;BME280;9520;50.954;6.968;2024-01-27T00:05:21;102862.28;;;12.76;44.21
18784;BME280;9520;50.954;6.968;2024-01-27T00:05:43;102869.38;;;12.79;44.08
18784;BME280;9520;50.954;6.968;2024-01-27T00:06:05;102868.53;;;12.81;43.93
18784;BME280;9520;50.954;6.968;2024-01-27T00:06:27;102871.16;;;12.83;43.96
18784;BME280;9520;50.954;6.968;2024-01-27T00:06:49;102864.16;;;12.86;44.13
18784;BME280;9520;50.954;6.968;2024-01-27T00:07:11;102869.47;;;12.86;44.29
18784;BME280;9520;50.954;6.968;2024-01-27T00:07:33;102872.84;;;12.75;43.80
18784;BME280;9520;50.954;6.968;2024-01-27T00:07:55;102871.13;;;12.77;44.02
18784;BME280;9520;50.954;6.968;2024-01-27T00:08:16;102864.88;;;12.73;43.65
18784;BME280;9520;50.954;6.968;2024-01-27T00:08:40;102862.34;;;12.81;43.86
18784;BME280;9520;50.954;6.968;2024-01-27T00:09:02;102865.81;;;12.77;43.93
18784;BME280;9520;50.954;6.968;2024-01-27T00:09:24;102868.44;;;12.75;43.96
18784;BME280;9520;50.954;6.968;2024-01-27T00:09:46;102869.34;;;12.76;43.82
18784;BME280;9520;50.954;6.968;2024-01-27T00:10:08;102858.69;;;12.71;43.70
18784;BME280;9520;50.954;6.968;2024-01-27T00:10:29;102861.38;;;12.74;43.44
18784;BME280;9520;50.954;6.968;2024-01-27T00:10:52;102861.38;;;12.74;43.54
18784;BME280;9520;50.954;6.968;2024-01-27T00:11:14;102862.94;;;12.59;43.67
18784;BME280;9520;50.954;6.968;2024-01-27T00:11:35;102868.25;;;12.59;43.66
18784;BME280;9520;50.954;6.968;2024-01-27T00:11:57;102871.84;;;12.64;43.63
18784;BME280;9520;50.954;6.968;2024-01-27T00:12:19;102858.59;;;12.62;43.73
18784;BME280;9520;50.954;6.968;2024-01-27T00:12:41;102863.94;;;12.68;43.66
18784;BME280;9520;50.954;6.968;2024-01-27T00:13:04;102867.53;;;12.72;43.60
18784;BME280;9520;50.954;6.968;2024-01-27T00:13:26;102863.06;;;12.66;44.02
18784;BME280;9520;50.954;6.968;2024-01-27T00:13:47;102867.50;;;12.67;43.90
18784;BME280;9520;50.954;6.968;2024-01-27T00:14:09;102859.41;;;12.58;43.68
18784;BME280;9520;50.954;6.968;2024-01-27T00:14:31;102862.97;;;12.60;43.72
18784;BME280;9520;50.954;6.968;2024-01-27T00:14:53;102862.91;;;12.54;43.66
18784;BME280;9520;50.954;6.968;2024-01-27T00:15:15;102867.28;;;12.53;43.89
18784;BME280;9520;50.954;6.968;2024-01-27T00:15:37;102867.31;;;12.55;44.16
18784;BME280;9520;50.954;6.968;2024-01-27T00:15:59;102865.56;;;12.55;43.84
18784;BME280;9520;50.954;6.968;2024-01-27T00:16:20;102859.47;;;12.61;43.83
18784;BME280;9520;50.954;6.968;2024-01-27T00:16:42;102862.06;;;12.58;43.99
18784;BME280;9520;50.954;6.968;2024-01-27T00:17:05;102857.72;;;12.62;43.91
18784;BME280;9520;50.954;6.968;2024-01-27T00:17:26;102865.66;;;12.63;44.06
18784;BME280;9520;50.954;6.968;2024-01-27T00:17:49;102863.94;;;12.67;43.92
18784;BME280;9520;50.954;6.968;2024-01-27T00:18:11;102862.22;;;12.70;43.81
18784;BME280;9520;50.954;6.968;2024-01-27T00:18:35;102867.59;;;12.76;43.98
18784;BME280;9520;50.954;6.968;2024-01-27T00:18:58;102863.19;;;12.78;43.71
18784;BME280;9520;50.954;6.968;2024-01-27T00:19:20;102865.88;;;12.81;43.55
18784;BME280;9520;50.954;6.968;2024-01-27T00:19:42;102860.56;;;12.83;43.48
18784;BME280;9520;50.954;6.968;2024-01-27T00:20:04;102859.66;;;12.79;43.61
18784;BME280;9520;50.954;6.968;2024-01-27T00:20:26;102869.47;;;12.86;43.51
18784;BME280;9520;50.954;6.968;2024-01-27T00:20:48;102868.59;;;12.87;43.63
18784;BME280;9520;50.954;6.968;2024-01-27T00:21:10;102867.72;;;12.87;43.41
18784;BME280;9520;50.954;6.968;2024-01-27T00:21:32;102863.31;;;12.87;43.24
18784;BME280;9520;50.954;6.968;2024-01-27T00:21:54;102854.44;;;12.85;43.11
18784;BME280;9520;50.954;6.968;2024-01-27T00:22:16;102865.06;;;12.87;43.27
18784;BME280;9520;50.954;6.968;2024-01-27T00:22:38;102864.22;;;12.91;43.13
18784;BME280;9520;50.954;6.968;2024-01-27T00:23:00;102858.84;;;12.88;43.44
18784;BME280;9520;50.954;6.968;2024-01-27T00:23:22;102863.31;;;12.90;43.82
18784;BME280;9520;50.954;6.968;2024-01-27T00:23:45;102870.31;;;12.85;43.60
18784;BME280;9520;50.954;6.968;2024-01-27T00:24:07;102861.47;;;12.83;43.31
18784;BME280;9520;50.954;6.968;2024-01-27T00:24:29;102864.06;;;12.77;43.29
18784;BME280;9520;50.954;6.968;2024-01-27T00:24:51;102863.97;;;12.70;43.29
18784;BME280;9520;50.954;6.968;2024-01-27T00:25:12;102857.84;;;12.72;43.34
18784;BME280;9520;50.954;6.968;2024-01-27T00:25:34;102866.56;;;12.65;43.53
18784;BME280;9520;50.954;6.968;2024-01-27T00:25:57;102862.94;;;12.57;43.62
18784;BME280;9520;50.954;6.968;2024-01-27T00:26:18;102862.09;;;12.60;43.75
18784;BME280;9520;50.954;6.968;2024-01-27T00:26:40;102863.06;;;12.66;43.57
18784;BME280;9520;50.954;6.968;2024-01-27T00:27:02;102866.66;;;12.71;43.73
18784;BME280;9520;50.954;6.968;2024-01-27T00:27:24;102864.88;;;12.73;43.41
18784;BME280;9520;50.954;6.968;2024-01-27T00:27:46;102861.41;;;12.76;43.40
18784;BME280;9520;50.954;6.968;2024-01-27T00:28:08;102863.19;;;12.80;43.42
18784;BME280;9520;50.954;6.968;2024-01-27T00:28:30;102864.13;;;12.82;43.60
18784;BME280;9520;50.954;6.968;2024-01-27T00:28:52;102861.41;;;12.76;43.66
18784;BME280;9520;50.954;6.968;2024-01-27T00:29:15;102871.13;;;12.78;43.65
18784;BME280;9520;50.954;6.968;2024-01-27T00:29:36;102870.28;;;12.81;43.44
18784;BME280;9520;50.954;6.968;2024-01-27T00:29:58;102867.56;;;12.78;43.48
18784;BME280;9520;50.954;6.968;2024-01-27T00:30:21;102864.13;;;12.82;43.23
18784;BME280;9520;50.954;6.968;2024-01-27T00:30:43;102860.59;;;12.84;43.35
18784;BME280;9520;50.954;6.968;2024-01-27T00:31:04;102869.38;;;12.80;43.29
18784;BME280;9520;50.954;6.968;2024-01-27T00:31:26;102874.69;;;12.80;43.11
18784;BME280;9520;50.954;6.968;2024-01-27T00:31:48;102857.84;;;12.75;43.22
18784;BME280;9520;50.954;6.968;2024-01-27T00:32:10;102861.47;;;12.82;43.50
18784;BME280;9520;50.954;6.968;2024-01-27T00:32:33;102872.13;;;12.86;43.63
18784;BME280;9520;50.954;6.968;2024-01-27T00:32:55;102869.44;;;12.88;43.70
18784;BME280;9520;50.954;6.968;2024-01-27T00:33:17;102872.13;;;12.86;43.53
18784;BME280;9520;50.954;6.968;2024-01-27T00:33:39;102875.25;;;12.52;43.64
18784;BME280;9520;50.954;6.968;2024-01-27T00:34:01;102866.94;;;12.23;44.09
18784;BME280;9520;50.954;6.968;2024-01-27T00:34:23;102871.84;;;11.96;44.46
18784;BME280;9520;50.954;6.968;2024-01-27T00:34:46;102876.31;;;12.01;44.55
18784;BME280;9520;50.954;6.968;2024-01-27T00:35:08;102871.00;;;11.98;44.83
18784;BME280;9520;50.954;6.968;2024-01-27T00:35:30;102871.97;;;12.05;44.75
18784;BME280;9520;50.954;6.968;2024-01-27T00:35:51;102876.50;;;12.14;44.52
18784;BME280;9520;50.954;6.968;2024-01-27T00:36:14;102867.72;;;12.16;44.36
18784;BME280;9520;50.954;6.968;2024-01-27T00:36:36;102871.38;;;12.26;44.32
18784;BME280;9520;50.954;6.968;2024-01-27T00:36:58;102870.59;;;12.33;44.33
18784;BME280;9520;50.954;6.968;2024-01-27T00:37:20;102854.69;;;12.31;44.37
18784;BME280;9520;50.954;6.968;2024-01-27T00:37:41;102871.56;;;12.41;44.38
18784;BME280;9520;50.954;6.968;2024-01-27T00:38:04;102864.53;;;12.41;44.04
18784;BME280;9520;50.954;6.968;2024-01-27T00:38:25;102876.06;;;12.46;44.00
18784;BME280;9520;50.954;6.968;2024-01-27T00:38:49;102874.25;;;12.42;43.94
18784;BME280;9520;50.954;6.968;2024-01-27T00:39:10;102874.28;;;12.45;43.88
18784;BME280;9520;50.954;6.968;2024-01-27T00:39:32;102876.06;;;12.49;43.85
18784;BME280;9520;50.954;6.968;2024-01-27T00:39:54;102863.69;;;12.45;43.76
18784;BME280;9520;50.954;6.968;2024-01-27T00:40:17;102869.91;;;12.50;44.03
18784;BME280;9520;50.954;6.968;2024-01-27T00:40:38;102869.06;;;12.51;43.85
18784;BME280;9520;50.954;6.968;2024-01-27T00:41:00;102870.91;;;12.57;43.87
18784;BME280;9520;50.954;6.968;2024-01-27T00:41:22;102871.66;;;12.48;43.97
18784;BME280;9520;50.954;6.968;2024-01-27T00:41:44;102876.13;;;12.52;43.97
18784;BME280;9520;50.954;6.968;2024-01-27T00:42:06;102868.19;;;12.54;43.81
18784;BME280;9520;50.954;6.968;2024-01-27T00:42:28;102871.75;;;12.56;43.95
18784;BME280;9520;50.954;6.968;2024-01-27T00:42:50;102870.00;;;12.58;43.74
18784;BME280;9520;50.954;6.968;2024-01-27T00:43:12;102870.78;;;12.49;43.67
18784;BME280;9520;50.954;6.968;2024-01-27T00:43:33;102874.38;;;12.53;43.60
18784;BME280;9520;50.954;6.968;2024-01-27T00:43:55;102861.13;;;12.51;43.64
18784;BME280;9520;50.954;6.968;2024-01-27T00:44:18;102870.84;;;12.54;43.64
18784;BME280;9520;50.954;6.968;2024-01-27T00:44:40;102874.31;;;12.50;43.87
18784;BME280;9520;50.954;6.968;2024-01-27T00:45:03;102873.50;;;12.55;43.66
18784;BME280;9520;50.954;6.968;2024-01-27T00:45:24;102869.13;;;12.59;43.82
18784;BME280;9520;50.954;6.968;2024-01-27T00:45:48;102877.16;;;12.65;44.11
18784;BME280;9520;50.954;6.968;2024-01-27T00:46:10;102865.63;;;12.60;44.32
18784;BME280;9520;50.954;6.968;2024-01-27T00:46:32;102871.78;;;12.59;44.10
18784;BME280;9520;50.954;6.968;2024-01-27T00:46:54;102874.47;;;12.61;43.92
18784;BME280;9520;50.954;6.968;2024-01-27T00:47:15;102875.28;;;12.58;44.09
18784;BME280;9520;50.954;6.968;2024-01-27T00:47:37;102869.13;;;12.58;43.62
18784;BME280;9520;50.954;6.968;2024-01-27T00:48:00;102878.91;;;12.65;43.92
18784;BME280;9520;50.954;6.968;2024-01-27T00:48:22;102872.78;;;12.67;44.08
18784;BME280;9520;50.954;6.968;2024-01-27T00:48:44;102878.97;;;12.69;44.21
18784;BME280;9520;50.954;6.968;2024-01-27T00:49:06;102872.78;;;12.69;44.43
18784;BME280;9520;50.954;6.968;2024-01-27T00:49:28;102879.84;;;12.70;44.16
18784;BME280;9520;50.954;6.968;2024-01-27T00:49:50;102879.91;;;12.73;43.94
18784;BME280;9520;50.954;6.968;2024-01-27T00:50:12;102880.78;;;12.73;43.61
18784;BME280;9520;50.954;6.968;2024-01-27T00:50:34;102886.06;;;12.72;43.87
18784;BME280;9520;50.954;6.968;2024-01-27T00:50:56;102879.91;;;12.74;44.00
18784;BME280;9520;50.954;6.968;2024-01-27T00:51:17;102887.91;;;12.79;44.00
18784;BME280;9520;50.954;6.968;2024-01-27T00:51:39;102880.00;;;12.82;44.13
18784;BME280;9520;50.954;6.968;2024-01-27T00:52:01;102883.53;;;12.81;44.24
18784;BME280;9520;50.954;6.968;2024-01-27T00:52:23;102884.41;;;12.83;44.18
18784;BME280;9520;50.954;6.968;2024-01-27T00:52:45;102879.13;;;12.84;43.97
18784;BME280;9520;50.954;6.968;2024-01-27T00:53:07;102886.22;;;12.85;44.19
18784;BME280;9520;50.954;6.968;2024-01-27T00:53:28;102885.31;;;12.83;43.90
18784;BME280;9520;50.954;6.968;2024-01-27T00:53:51;102877.41;;;12.86;43.69
18784;BME280;9520;50.954;6.968;2024-01-27T00:54:13;102870.19;;;12.73;43.39
18784;BME280;9520;50.954;6.968;2024-01-27T00:54:36;102883.56;;;12.82;43.54
18784;BME280;9520;50.954;6.968;2024-01-27T00:54:57;102883.56;;;12.82;43.32
18784;BME280;9520;50.954;6.968;2024-01-27T00:55:19;102883.56;;;12.82;43.23
18784;BME280;9520;50.954;6.968;2024-01-27T00:55:41;102882.63;;;12.80;43.36
18784;BME280;9520;50.954;6.968;2024-01-27T00:56:04;102887.94;;;12.83;43.73
18784;BME280;9520;50.954;6.968;2024-01-27T00:56:26;102887.94;;;12.83;43.78
18784;BME280;9520;50.954;6.968;2024-01-27T00:56:48;102884.44;;;12.84;43.50
18784;BME280;9520;50.954;6.968;2024-01-27T00:57:10;102881.75;;;12.80;43.41
18784;BME280;9520;50.954;6.968;2024-01-27T00:57:32;102886.97;;;12.72;43.68
18784;BME280;9520;50.954;6.968;2024-01-27T00:57:54;102887.84;;;12.74;43.55
18784;BME280;9520;50.954;6.968;2024-01-27T00:58:16;102887.84;;;12.73;43.79
18784;BME280;9520;50.954;6.968;2024-01-27T00:58:38;102882.47;;;12.68;43.66
18784;BME280;9520;50.954;6.968;2024-01-27T00:59:00;102887.81;;;12.71;43.72
18784;BME280;9520;50.954;6.968;2024-01-27T00:59:21;102883.34;;;12.66;43.63
18784;BME280;9520;50.954;6.968;2024-01-27T00:59:43;102880.69;;;12.66;43.48
18784;BME280;9520;50.954;6.968;2024-01-27T01:00:06;102888.66;;;12.67;43.47
18784;BME280;9520;50.954;6.968;2024-01-27T01:00:28;102891.31;;;12.67;43.73
18784;BME280;9520;50.954;6.968;2024-01-27T01:00:51;102882.47;;;12.68;43.83
18784;BME280;9520;50.954;6.968;2024-01-27T01:01:12;102883.41;;;12.70;43.89
18784;BME280;9520;50.954;6.968;2024-01-27T01:01:34;102886.00;;;12.69;43.83
18784;BME280;9520;50.954;6.968;2024-01-27T01:01:56;102881.59;;;12.66;43.77
18784;BME280;9520;50.954;6.968;2024-01-27T01:02:17;102890.38;;;12.64;43.57
18784;BME280;9520;50.954;6.968;2024-01-27T01:02:41;102882.41;;;12.64;43.73
18784;BME280;9520;50.954;6.968;2024-01-27T01:03:04;102885.16;;;12.70;43.44
18784;BME280;9520;50.954;6.968;2024-01-27T01:03:25;102886.03;;;12.70;43.68
18784;BME280;9520;50.954;6.968;2024-01-27T01:03:47;102885.22;;;12.73;43.78
18784;BME280;9520;50.954;6.968;2024-01-27T01:04:09;102885.22;;;12.73;44.33
18784;BME280;9520;50.954;6.968;2024-01-27T01:04:31;102890.50;;;12.73;44.02
18784;BME280;9520;50.954;6.968;2024-01-27T01:04:53;102879.00;;;12.71;43.87
18784;BME280;9520;50.954;6.968;2024-01-27T01:05:15;102889.38;;;12.52;43.59
18784;BME280;9520;50.954;6.968;2024-01-27T01:05:37;102884.72;;;12.35;43.93
18784;BME280;9520;50.954;6.968;2024-01-27T01:05:59;102883.84;;;12.36;44.13
18784;BME280;9520;50.954;6.968;2024-01-27T01:06:22;102896.25;;;12.40;43.96
18784;BME280;9520;50.954;6.968;2024-01-27T01:06:45;102892.66;;;12.35;44.13
18784;BME280;9520;50.954;6.968;2024-01-27T01:07:07;102885.66;;;12.40;44.04
18784;BME280;9520;50.954;6.968;2024-01-27T01:07:30;102885.66;;;12.40;44.08
18784;BME280;9520;50.954;6.968;2024-01-27T01:07:51;102883.94;;;12.42;44.08
18784;BME280;9520;50.954;6.968;2024-01-27T01:08:13;102882.03;;;12.32;44.01
18784;BME280;9520;50.954;6.968;2024-01-27T01:08:35;102891.78;;;12.36;44.27
18784;BME280;9520;50.954;6.968;2024-01-27T01:08:59;102883.81;;;12.33;44.31
18784;BME280;9520;50.954;6.968;2024-01-27T01:09:20;102886.41;;;12.30;44.23
18784;BME280;9520;50.954;6.968;2024-01-27T01:09:42;102889.97;;;12.32;44.14
18784;BME280;9520;50.954;6.968;2024-01-27T01:10:05;102889.09;;;12.31;44.20
18784;BME280;9520;50.954;6.968;2024-01-27T01:10:28;102882.03;;;12.32;44.35
18784;BME280;9520;50.954;6.968;2024-01-27T01:10:49;102885.56;;;12.34;44.46
18784;BME280;9520;50.954;6.968;2024-01-27T01:11:11;102891.69;;;12.30;44.31
18784;BME280;9520;50.954;6.968;2024-01-27T01:11:33;102891.72;;;12.31;44.33
18784;BME280;9520;50.954;6.968;2024-01-27T01:11:59;102895.31;;;12.33;44.42
18784;BME280;9520;50.954;6.968;2024-01-27T01:12:21;102893.56;;;12.38;44.25
18784;BME280;9520;50.954;6.968;2024-01-27T01:12:43;102891.00;;;12.41;44.24
18784;BME280;9520;50.954;6.968;2024-01-27T01:13:05;102894.59;;;12.46;44.31
18784;BME280;9520;50.954;6.968;2024-01-27T01:13:27;102896.38;;;12.49;44.73
18784;BME280;9520;50.954;6.968;2024-01-27T01:13:49;102888.47;;;12.52;44.62
18784;BME280;9520;50.954;6.968;2024-01-27T01:14:10;102891.13;;;12.52;44.50
18784;BME280;9520;50.954;6.968;2024-01-27T01:14:33;102890.19;;;12.48;44.42
18784;BME280;9520;50.954;6.968;2024-01-27T01:14:55;102892.75;;;12.41;44.42
18784;BME280;9520;50.954;6.968;2024-01-27T01:15:16;102886.56;;;12.40;44.44
18784;BME280;9520;50.954;6.968;2024-01-27T01:15:38;102891.03;;;12.43;44.42
18784;BME280;9520;50.954;6.968;2024-01-27T01:16:01;102888.34;;;12.41;44.41
18784;BME280;9520;50.954;6.968;2024-01-27T01:16:24;102894.56;;;12.45;44.34
18784;BME280;9520;50.954;6.968;2024-01-27T01:16:46;102886.66;;;12.46;44.26
18784;BME280;9520;50.954;6.968;2024-01-27T01:17:08;102892.81;;;12.47;44.13
18784;BME280;9520;50.954;6.968;2024-01-27T01:17:30;102889.31;;;12.49;44.09
18784;BME280;9520;50.954;6.968;2024-01-27T01:17:51;102896.31;;;12.43;44.19
18784;BME280;9520;50.954;6.968;2024-01-27T01:18:13;102892.78;;;12.44;44.01
18784;BME280;9520;50.954;6.968;2024-01-27T01:18:36;102891.06;;;12.49;44.04
18784;BME280;9520;50.954;6.968;2024-01-27T01:18:58;102894.63;;;12.51;43.99
18784;BME280;9520;50.954;6.968;2024-01-27T01:19:19;102887.53;;;12.47;44.09
18784;BME280;9520;50.954;6.968;2024-01-27T01:19:41;102884.88;;;12.47;44.07
18784;BME280;9520;50.954;6.968;2024-01-27T01:20:03;102890.25;;;12.51;44.17
18784;BME280;9520;50.954;6.968;2024-01-27T01:20:27;102893.78;;;12.53;43.81
18784;BME280;9520;50.954;6.968;2024-01-27T01:20:48;102881.38;;;12.48;43.97
18784;BME280;9520;50.954;6.968;2024-01-27T01:21:10;102892.81;;;12.48;43.82
18784;BME280;9520;50.954;6.968;2024-01-27T01:21:32;102891.03;;;12.46;43.70
18784;BME280;9520;50.954;6.968;2024-01-27T01:21:53;102885.72;;;12.44;43.84
18784;BME280;9520;50.954;6.968;2024-01-27T01:22:15;102883.06;;;12.44;43.95
18784;BME280;9520;50.954;6.968;2024-01-27T01:22:38;102888.41;;;12.46;44.04
18784;BME280;9520;50.954;6.968;2024-01-27T01:22:59;102892.03;;;12.52;43.89
18784;BME280;9520;50.954;6.968;2024-01-27T01:23:21;102884.84;;;12.45;43.83
18784;BME280;9520;50.954;6.968;2024-01-27T01:23:43;102894.63;;;12.51;43.78
18784;BME280;9520;50.954;6.968;2024-01-27T01:24:06;102898.22;;;12.53;43.89
18784;BME280;9520;50.954;6.968;2024-01-27T01:24:29;102893.78;;;12.53;44.00
18784;BME280;9520;50.954;6.968;2024-01-27T01:24:52;102896.44;;;12.52;43.97
18784;BME280;9520;50.954;6.968;2024-01-27T01:25:14;102891.97;;;12.49;43.78
18784;BME280;9520;50.954;6.968;2024-01-27T01:25:53;102891.13;;;12.52;43.67
18784;BME280;9520;50.954;6.968;2024-01-27T01:26:14;102892.03;;;12.54;43.67
18784;BME280;9520;50.954;6.968;2024-01-27T01:26:36;102892.91;;;12.53;43.69
18784;BME280;9520;50.954;6.968;2024-01-27T01:26:59;102889.31;;;12.49;43.75
18784;BME280;9520;50.954;6.968;2024-01-27T01:27:20;102892.91;;;12.53;43.42
18784;BME280;9520;50.954;6.968;2024-01-27T01:27:43;102885.84;;;12.52;43.50
18784;BME280;9520;50.954;6.968;2024-01-27T01:28:05;102891.19;;;12.58;43.63
18784;BME280;9520;50.954;6.968;2024-01-27T01:28:26;102891.19;;;12.58;43.88
18784;BME280;9520;50.954;6.968;2024-01-27T01:28:49;102894.75;;;12.60;43.76
18784;BME280;9520;50.954;6.968;2024-01-27T01:29:12;102896.53;;;12.61;43.85
18784;BME280;9520;50.954;6.968;2024-01-27T01:29:33;102885.94;;;12.61;43.78
18784;BME280;9520;50.954;6.968;2024-01-27T01:29:55;102896.59;;;12.66;43.69
18784;BME280;9520;50.954;6.968;2024-01-27T01:30:17;102893.03;;;12.62;43.91
18784;BME280;9520;50.954;6.968;2024-01-27T01:30:39;102895.63;;;12.58;44.02
18784;BME280;9520;50.954;6.968;2024-01-27T01:31:01;102900.91;;;12.58;43.90
18784;BME280;9520;50.954;6.968;2024-01-27T01:31:23;102892.06;;;12.59;43.87
18784;BME280;9520;50.954;6.968;2024-01-27T01:31:45;102892.06;;;12.59;43.79
18784;BME280;9520;50.954;6.968;2024-01-27T01:32:06;102886.78;;;12.57;43.72
18784;BME280;9520;50.954;6.968;2024-01-27T01:32:28;102900.00;;;12.57;44.20
18784;BME280;9520;50.954;6.968;2024-01-27T01:32:50;102887.66;;;12.56;43.76
18784;BME280;9520;50.954;6.968;2024-01-27T01:33:13;102890.28;;;12.56;43.63
18784;BME280;9520;50.954;6.968;2024-01-27T01:33:35;102892.03;;;12.52;43.65
18784;BME280;9520;50.954;6.968;2024-01-27T01:33:57;102891.97;;;12.49;43.81
18784;BME280;9520;50.954;6.968;2024-01-27T01:34:19;102886.38;;;12.27;44.06
18784;BME280;9520;50.954;6.968;2024-01-27T01:34:41;102881.88;;;12.20;44.29
18784;BME280;9520;50.954;6.968;2024-01-27T01:35:05;102890.53;;;12.09;44.67
18784;BME280;9520;50.954;6.968;2024-01-27T01:35:27;102889.75;;;12.15;44.73
18784;BME280;9520;50.954;6.968;2024-01-27T01:35:48;102888.03;;;12.20;44.61
18784;BME280;9520;50.954;6.968;2024-01-27T01:36:10;102893.41;;;12.25;44.36
18784;BME280;9520;50.954;6.968;2024-01-27T01:36:32;102877.53;;;12.23;44.36
18784;BME280;9520;50.954;6.968;2024-01-27T01:36:55;102892.50;;;12.23;44.40
18784;BME280;9520;50.954;6.968;2024-01-27T01:37:18;102892.50;;;12.23;44.46
18784;BME280;9520;50.954;6.968;2024-01-27T01:37:40;102891.69;;;12.30;44.31
18784;BME280;9520;50.954;6.968;2024-01-27T01:38:01;102884.72;;;12.33;44.44
18784;BME280;9520;50.954;6.968;2024-01-27T01:38:23;102884.78;;;12.38;44.42
18784;BME280;9520;50.954;6.968;2024-01-27T01:38:45;102892.72;;;12.39;44.47
18784;BME280;9520;50.954;6.968;2024-01-27T01:39:10;102892.75;;;12.41;44.63
18784;BME280;9520;50.954;6.968;2024-01-27T01:39:31;102886.63;;;12.45;44.28
18784;BME280;9520;50.954;6.968;2024-01-27T01:39:53;102891.97;;;12.48;44.19
18784;BME280;9520;50.954;6.968;2024-01-27T01:40:15;102887.56;;;12.50;44.13
18784;BME280;9520;50.954;6.968;2024-01-27T01:40:37;102886.66;;;12.48;44.11
18784;BME280;9520;50.954;6.968;2024-01-27T01:41:00;102882.25;;;12.50;43.99
18784;BME280;9520;50.954;6.968;2024-01-27T01:41:21;102889.28;;;12.46;43.87
18784;BME280;9520;50.954;6.968;2024-01-27T01:41:43;102889.31;;;12.48;43.95
18784;BME280;9520;50.954;6.968;2024-01-27T01:42:05;102887.59;;;12.51;43.89
18784;BME280;9520;50.954;6.968;2024-01-27T01:42:26;102891.13;;;12.53;43.86
18784;BME280;9520;50.954;6.968;2024-01-27T01:42:51;102890.25;;;12.54;43.72
18784;BME280;9520;50.954;6.968;2024-01-27T01:43:14;102890.31;;;12.58;43.66
18784;BME280;9520;50.954;6.968;2024-01-27T01:43:35;102890.25;;;12.54;43.74
18784;BME280;9520;50.954;6.968;2024-01-27T01:43:57;102898.22;;;12.56;43.99
18784;BME280;9520;50.954;6.968;2024-01-27T01:44:19;102885.84;;;12.55;44.05
18784;BME280;9520;50.954;6.968;2024-01-27T01:44:40;102894.69;;;12.55;44.01
18784;BME280;9520;50.954;6.968;2024-01-27T01:45:04;102892.03;;;12.55;44.26
18784;BME280;9520;50.954;6.968;2024-01-27T01:45:25;102887.66;;;12.56;43.98
18784;BME280;9520;50.954;6.968;2024-01-27T01:45:47;102886.66;;;12.49;43.90
18784;BME280;9520;50.954;6.968;2024-01-27T01:46:11;102893.81;;;12.55;44.05
18784;BME280;9520;50.954;6.968;2024-01-27T01:46:33;102900.88;;;12.56;43.77
18784;BME280;9520;50.954;6.968;2024-01-27T01:46:55;102896.47;;;12.57;43.68
18784;BME280;9520;50.954;6.968;2024-01-27T01:47:18;102891.88;;;12.43;43.84
18784;BME280;9520;50.954;6.968;2024-01-27T01:47:40;102902.28;;;12.30;44.08
18784;BME280;9520;50.954;6.968;2024-01-27T01:48:02;102882.03;;;12.32;44.09
18784;BME280;9520;50.954;6.968;2024-01-27T01:48:25;102890.97;;;12.40;44.15
18784;BME280;9520;50.954;6.968;2024-01-27T01:48:47;102890.16;;;12.45;44.30
18784;BME280;9520;50.954;6.968;2024-01-27T01:49:10;102886.66;;;12.48;44.17
18784;BME280;9520;50.954;6.968;2024-01-27T01:49:32;102889.34;;;12.51;44.12
18784;BME280;9520;50.954;6.968;2024-01-27T01:49:55;102890.25;;;12.54;43.95
18784;BME280;9520;50.954;6.968;2024-01-27T01:50:17;102883.25;;;12.57;43.95
18784;BME280;9520;50.954;6.968;2024-01-27T01:50:40;102892.13;;;12.62;43.90
18784;BME280;9520;50.954;6.968;2024-01-27T01:51:02;102881.47;;;12.57;43.90
18784;BME280;9520;50.954;6.968;2024-01-27T01:51:26;102891.25;;;12.64;43.85
18784;BME280;9520;50.954;6.968;2024-01-27T01:51:48;102889.38;;;12.54;43.66
18784;BME280;9520;50.954;6.968;2024-01-27T01:52:10;102892.03;;;12.52;43.94
18784;BME280;9520;50.954;6.968;2024-01-27T01:52:32;102882.31;;;12.54;43.89
18784;BME280;9520;50.954;6.968;2024-01-27T01:52:54;102885.03;;;12.59;43.81
18784;BME280;9520;50.954;6.968;2024-01-27T01:53:16;102882.31;;;12.53;44.08
18784;BME280;9520;50.954;6.968;2024-01-27T01:53:39;102883.22;;;12.55;44.26
18784;BME280;9520;50.954;6.968;2024-01-27T01:54:01;102892.06;;;12.59;44.30
18784;BME280;9520;50.954;6.968;2024-01-27T01:54:25;102893.81;;;12.58;44.24
18784;BME280;9520;50.954;6.968;2024-01-27T01:54:49;102880.44;;;12.44;44.32
18784;BME280;9520;50.954;6.968;2024-01-27T01:55:11;102895.50;;;12.50;44.13
18784;BME280;9520;50.954;6.968;2024-01-27T01:55:34;102894.59;;;12.46;43.71
18784;BME280;9520;50.954;6.968;2024-01-27T01:55:56;102887.53;;;12.48;43.80
18784;BME280;9520;50.954;6.968;2024-01-27T01:56:18;102893.75;;;12.50;43.76
18784;BME280;9520;50.954;6.968;2024-01-27T01:56:40;102891.06;;;12.49;44.05
18784;BME280;9520;50.954;6.968;2024-01-27T01:57:03;102892.91;;;12.53;44.09
18784;BME280;9520;50.954;6.968;2024-01-27T01:57:26;102898.16;;;12.50;43.98